ADDS METAR Data INFO
IDs: Format: Raw Decoded Include TAF

Data at: 1015 UTC 12 Dec 2017

KBCT 120347Z 33004KT 10SM FEW035 12/6 A3017 RMK LAST
KBCT 120247Z 33005KT 10SM FEW034 12/6 A3018
KBCT 120147Z 32004KT 10SM SCT046 13/6 A3017
KBCT 120047Z 32005KT 10SM CLR 14/6 A3018
KBCT 112350Z 31006KT 10SM CLR 15/07 A3017
KBCT 112247Z VRB03KT 10SM CLR 15/1 A3015
KBCT 112147Z 32005KT 10SM CLR 18/0 A3015
KBCT 112047Z 32007KT 10SM CLR 19/0 A3015
KBCT 111947Z 01004KT 10SM CLR 19/5 A3015
KBCT 111847Z 00000KT 10SM CLR 19/2 A3016
KBCT 111751Z 35004KT 10SM CLR 18/2 A3019
KBCT 111651Z 02007KT 10SM CLR 18/2 A3027
KBCT 111551Z 32007KT 10SM CLR 15/1 A3026
KBCT 111447Z 34010KT 10SM CLR 13/0 A3028
KBCT 111347Z 34008KT 10SM CLR 12/1 A3028
KBCT 111255Z 34008KT 10SM CLR 10/1 A3028
KBCT 111149Z 34009KT 10SM CLR 9/2 A3027
KBCT 110347Z 33008KT 10SM FEW032 11/3 A3028 RMK LAST
KBCT 110247Z 33009KT 10SM CLR 11/4 A3029
KBCT 110147Z 34007KT 10SM FEW031 12/6 A3028
KBCT 110047Z 35007KT 10SM FEW031 13/6 A3028
KBCT 102347Z 35007KT 10SM CLR 13/7 A3026
KBCT 102247Z 35007KT 10SM CLR 14/7 A3025